Azalea Park, Florida
Current Conditions -  °F | °C
As of 12:53 PM on Sunday 21 Dec 2014 (Local Time) from KORL Reporting Station
Clear Clear  
Wind Chill: 78°   Ceiling: Unl
Heat Index: 80°   Visibility: 10mi
Dew Point: 63°   Wind: 8mph
Humidity: 60%   Direction: 180°S
Pressure: 30.05"   Gusts: NA
Location:  28.5525°N, 81.3003°W
Report Text: KORL 211753Z 18007KT 10SM CLR 26/17 A3005 RMK AO2 SLP179 60000 T02560172 10261 20161 56025
Loading
Personal Weather Stations






























Interactive Weather Map New forecast layout! Learn more

10-Day Weather Forecast

Advertisements
Track Severe Weather on mobile